createdAt,value
2022-11-18T00:01:48.155Z,0.42
2022-11-18T00:04:16.390Z,0.60
2022-11-18T00:06:44.139Z,0.52
2022-11-18T00:09:11.932Z,0.51
2022-11-18T00:11:59.026Z,0.51
2022-11-18T00:14:27.653Z,0.49
2022-11-18T00:16:57.661Z,0.55
2022-11-18T00:19:27.351Z,0.52
2022-11-18T00:21:54.979Z,0.53
2022-11-18T00:24:22.648Z,0.50
2022-11-18T00:26:50.890Z,0.44
2022-11-18T00:29:18.772Z,0.51
2022-11-18T00:31:46.570Z,0.44
2022-11-18T00:34:15.361Z,0.37
2022-11-18T00:36:43.838Z,0.43
2022-11-18T00:39:12.151Z,0.44
2022-11-18T00:41:58.073Z,0.49
2022-11-18T00:44:26.356Z,0.47
2022-11-18T00:46:54.315Z,0.40
2022-11-18T00:49:22.003Z,0.32
2022-11-18T00:51:49.750Z,0.24
2022-11-18T00:54:19.080Z,0.36
2022-11-18T00:56:46.854Z,0.33
2022-11-18T00:59:17.307Z,0.24
2022-11-18T01:01:45.243Z,0.21
2022-11-18T01:04:12.894Z,0.20
2022-11-18T01:06:40.741Z,0.19
2022-11-18T01:09:08.972Z,0.13
2022-11-18T01:11:55.026Z,0.21
2022-11-18T01:14:24.985Z,0.24
2022-11-18T01:16:56.475Z,0.14
2022-11-18T01:19:24.427Z,0.15
2022-11-18T01:21:52.042Z,0.05
2022-11-18T01:24:19.789Z,0.03
2022-11-18T01:26:47.376Z,0.02
2022-11-18T01:29:16.072Z,0.03
2022-11-18T01:32:01.813Z,0.06
2022-11-18T01:34:31.941Z,0.17
2022-11-18T01:36:59.493Z,0.09
2022-11-18T01:39:27.840Z,0.00
2022-11-18T01:41:55.954Z,-0.02
2022-11-18T04:15:09.902Z,-0.83
2022-11-18T04:17:37.621Z,-0.77
2022-11-18T04:20:05.691Z,-0.82
2022-11-18T04:22:36.231Z,-0.73
2022-11-18T04:25:03.974Z,-0.70
2022-11-18T04:27:31.584Z,-0.57
2022-11-18T04:29:59.346Z,-0.69
2022-11-18T04:32:26.945Z,-0.65
2022-11-18T04:34:54.549Z,-0.68
2022-11-18T04:37:22.359Z,-0.65
2022-11-18T04:39:50.315Z,-0.63
2022-11-18T04:42:18.060Z,-0.68
2022-11-18T04:44:45.726Z,-0.73
2022-11-18T04:47:13.638Z,-0.68
2022-11-18T04:49:41.161Z,-0.65
2022-11-18T04:52:09.705Z,-0.67
2022-11-18T04:54:37.319Z,-0.57
2022-11-18T04:57:04.962Z,-0.58
2022-11-18T04:59:34.257Z,-0.67
2022-11-18T05:02:02.035Z,-0.60
2022-11-18T05:05:26.430Z,-0.65
2022-11-18T05:09:10.167Z,-0.71
2022-11-18T05:12:08.013Z,-0.73
2022-11-18T05:14:36.399Z,-0.64
2022-11-18T05:17:05.530Z,-0.59
2022-11-18T05:19:42.245Z,-0.55
2022-11-18T05:22:10.105Z,-0.63
2022-11-18T05:24:38.305Z,-0.59
2022-11-18T05:27:06.264Z,-0.53
2022-11-18T05:29:34.447Z,-0.52
2022-11-18T05:32:02.347Z,-0.46
2022-11-18T05:34:48.818Z,-0.42
2022-11-18T05:37:16.593Z,-0.47
2022-11-18T05:39:44.261Z,-0.51
2022-11-18T05:42:30.451Z,-0.49
2022-11-18T05:44:59.022Z,-0.37
2022-11-18T05:47:27.255Z,-0.37
2022-11-18T05:49:55.108Z,-0.48
2022-11-18T05:52:22.811Z,-0.46
2022-11-18T05:54:50.755Z,-0.49
2022-11-18T05:57:18.471Z,-0.41
2022-11-18T05:59:46.581Z,-0.34
2022-11-18T06:02:17.031Z,-0.36
2022-11-18T06:04:49.645Z,-0.27
2022-11-18T06:07:23.216Z,-0.14
2022-11-18T06:09:54.999Z,-0.27
2022-11-18T06:12:28.995Z,-0.23
2022-11-18T06:15:27.756Z,-0.16
2022-11-18T06:18:07.733Z,-0.03
2022-11-18T06:20:36.663Z,-0.06
2022-11-18T06:23:04.341Z,0.00
2022-11-18T06:25:32.438Z,-0.06
2022-11-18T06:28:01.647Z,-0.02
2022-11-18T06:30:29.567Z,0.06
2022-11-18T06:32:57.283Z,-0.05
2022-11-18T06:35:25.228Z,-0.09
2022-11-18T06:37:53.256Z,-0.01
2022-11-18T06:40:20.927Z,0.09
2022-11-18T06:43:07.118Z,0.11
2022-11-18T06:45:35.453Z,0.02
2022-11-18T06:48:04.338Z,0.23
2022-11-18T06:50:32.320Z,0.23
2022-11-18T06:53:18.160Z,0.19
2022-11-18T06:55:45.901Z,0.20
2022-11-18T06:58:14.347Z,0.20
2022-11-18T07:00:42.097Z,0.26
2022-11-18T07:03:09.926Z,0.17
2022-11-18T07:05:39.922Z,0.20
2022-11-18T07:08:07.560Z,0.25
2022-11-18T07:10:35.244Z,0.25
2022-11-18T07:13:03.309Z,0.40
2022-11-18T07:15:31.275Z,0.28
2022-11-18T07:17:58.974Z,0.38
2022-11-18T07:20:26.721Z,0.60
2022-11-18T07:22:54.659Z,0.38
2022-11-18T07:25:22.565Z,0.45
2022-11-18T07:27:50.356Z,0.58
2022-11-18T07:30:18.266Z,0.59
2022-11-18T07:32:46.046Z,0.55
2022-11-18T07:35:14.561Z,0.74
2022-11-18T07:37:42.283Z,0.79
2022-11-18T07:40:10.659Z,0.93
2022-11-18T07:42:45.542Z,0.99
2022-11-18T07:45:25.370Z,0.76
2022-11-18T07:47:53.008Z,0.89
2022-11-18T07:50:20.640Z,1.16
2022-11-18T07:52:48.315Z,1.07
2022-11-18T07:55:15.928Z,0.99
2022-11-18T07:57:44.058Z,1.22
2022-11-18T08:00:11.999Z,1.40
2022-11-18T08:02:44.107Z,1.48
2022-11-18T08:05:17.700Z,1.26
2022-11-18T08:07:47.036Z,1.27
2022-11-18T08:10:14.765Z,1.16
2022-11-18T08:12:43.091Z,1.35
2022-11-18T08:15:11.265Z,1.32
2022-11-18T08:17:39.093Z,1.31
2022-11-18T08:20:07.162Z,1.41
2022-11-18T08:22:52.855Z,1.48
2022-11-18T08:25:20.617Z,1.62
2022-11-18T08:27:48.447Z,1.52
2022-11-18T08:30:16.154Z,1.36
2022-11-18T08:32:44.199Z,1.24
2022-11-18T08:35:12.317Z,1.31
2022-11-18T08:37:39.987Z,1.17
2022-11-18T08:40:08.058Z,0.99
2022-11-18T08:42:37.947Z,1.20
2022-11-18T08:45:08.587Z,0.97
2022-11-18T08:47:36.946Z,0.96
2022-11-18T08:50:05.968Z,0.99
2022-11-18T08:52:34.002Z,1.25
2022-11-18T08:55:01.624Z,1.28
2022-11-18T08:57:29.366Z,1.09
2022-11-18T08:59:56.960Z,1.12
2022-11-18T09:02:25.062Z,1.03
2022-11-18T09:04:52.687Z,1.21
2022-11-18T09:07:21.629Z,1.36
2022-11-18T09:09:50.476Z,1.13
2022-11-18T09:12:18.154Z,1.16
2022-11-18T09:17:35.097Z,1.41
2022-11-18T09:20:02.745Z,1.45
2022-11-18T09:22:32.189Z,1.48
2022-11-18T09:24:59.732Z,1.33
2022-11-18T09:27:27.473Z,1.02
2022-11-18T09:29:55.080Z,1.16
2022-11-18T09:32:22.751Z,1.24
2022-11-18T09:34:50.452Z,1.14
2022-11-18T09:37:19.235Z,1.01
2022-11-18T09:39:46.932Z,1.03
2022-11-18T09:42:23.660Z,1.01
2022-11-18T09:45:07.376Z,1.03
2022-11-18T09:47:38.010Z,0.97
2022-11-18T09:50:47.805Z,1.06
2022-11-18T09:53:21.687Z,0.99
2022-11-18T09:55:50.272Z,0.80
2022-11-18T09:58:23.094Z,1.08
2022-11-18T10:00:51.013Z,1.24
2022-11-18T10:03:26.704Z,1.07
2022-11-18T10:06:05.162Z,1.22
2022-11-18T10:08:46.046Z,1.31
2022-11-18T10:11:18.454Z,1.21
2022-11-18T10:13:51.848Z,1.22
2022-11-18T10:16:42.316Z,1.25
2022-11-18T10:19:30.078Z,1.41
2022-11-18T10:22:24.349Z,1.31
2022-11-18T15:35:43.422Z,1.58
2022-11-18T15:38:11.882Z,1.48
2022-11-18T15:40:40.796Z,1.45
2022-11-18T15:43:08.511Z,1.45
2022-11-18T15:45:36.354Z,1.28
2022-11-18T15:48:04.225Z,1.43
2022-11-18T15:50:32.363Z,1.36
2022-11-18T15:53:00.315Z,1.44
2022-11-18T15:55:28.026Z,1.43
2022-11-18T15:57:55.783Z,1.45
2022-11-18T16:00:24.049Z,1.41
2022-11-18T16:02:52.180Z,1.42
2022-11-18T16:05:19.858Z,1.43
2022-11-18T16:07:52.786Z,1.41
2022-11-18T16:10:40.852Z,1.41
2022-11-18T16:13:08.485Z,1.45
2022-11-18T16:15:48.313Z,1.38
2022-11-18T16:18:16.817Z,1.37
2022-11-18T16:20:44.564Z,1.35
2022-11-18T16:23:12.393Z,1.39
2022-11-18T16:25:46.414Z,1.41
2022-11-18T16:28:14.069Z,1.42
2022-11-18T16:31:00.522Z,1.42
2022-11-18T16:33:28.913Z,1.42
2022-11-18T16:35:56.621Z,1.34
2022-11-18T16:38:24.409Z,1.39
2022-11-18T16:40:56.878Z,1.39
2022-11-18T16:43:24.869Z,1.36
2022-11-18T16:45:53.817Z,1.37
2022-11-18T16:48:21.892Z,1.38
2022-11-18T16:50:55.207Z,1.39
2022-11-18T16:53:22.931Z,1.34
2022-11-18T16:55:50.521Z,1.38
2022-11-18T16:58:18.270Z,1.38
2022-11-18T17:01:16.419Z,1.41
2022-11-18T17:03:33.736Z,1.45
2022-11-18T17:06:01.418Z,1.39
2022-11-18T17:08:29.265Z,1.43
2022-11-18T17:10:56.929Z,1.46
2022-11-18T17:13:24.862Z,1.44
2022-11-18T17:15:52.454Z,1.47
2022-11-18T17:18:20.210Z,1.35
2022-11-18T17:20:47.913Z,1.39
2022-11-18T17:23:15.849Z,1.33
2022-11-18T17:25:43.916Z,1.50
2022-11-18T17:28:12.088Z,1.43
2022-11-18T17:30:43.483Z,1.45
2022-11-18T17:33:15.562Z,1.43
2022-11-18T17:35:43.172Z,1.50
2022-11-18T17:38:10.894Z,1.50
2022-11-18T17:40:39.095Z,1.64
2022-11-18T17:43:06.783Z,1.54
2022-11-18T17:45:34.540Z,1.45
2022-11-18T17:48:02.523Z,1.49
2022-11-18T17:50:30.329Z,1.46
2022-11-18T17:52:58.316Z,1.47
2022-11-18T17:55:25.976Z,1.48
2022-11-18T17:57:53.760Z,1.51
2022-11-18T18:00:21.520Z,1.58
2022-11-18T18:02:49.264Z,1.64
2022-11-18T18:05:17.025Z,1.63
2022-11-18T18:07:45.512Z,1.55
2022-11-18T18:10:13.419Z,1.57
2022-11-18T18:13:00.907Z,1.64
2022-11-18T18:15:30.392Z,1.57
2022-11-18T18:17:59.669Z,1.68
2022-11-18T18:20:27.799Z,1.68
2022-11-18T18:22:56.985Z,1.69
2022-11-18T18:25:25.453Z,1.67
2022-11-18T18:27:55.020Z,1.63
2022-11-18T18:30:22.806Z,1.63
2022-11-18T18:32:52.721Z,1.74
2022-11-18T18:35:21.160Z,1.79
2022-11-18T18:37:48.835Z,1.72
2022-11-18T18:40:16.876Z,1.69
2022-11-18T18:42:44.644Z,1.74
2022-11-18T18:45:30.916Z,1.72
2022-11-18T18:48:03.247Z,1.74
2022-11-18T18:50:32.530Z,1.76
2022-11-18T18:53:00.265Z,1.85
2022-11-18T18:55:28.764Z,1.85
2022-11-18T18:57:56.363Z,1.77
2022-11-18T19:00:24.078Z,1.88
2022-11-18T19:02:54.871Z,1.86
2022-11-18T19:05:33.511Z,1.94
2022-11-18T19:08:10.941Z,1.85
2022-11-18T19:10:39.399Z,1.90
2022-11-18T19:13:07.228Z,1.92
2022-11-18T19:15:35.767Z,1.93
2022-11-18T22:34:46.889Z,2.53
2022-11-18T22:37:18.206Z,2.47
2022-11-18T22:39:47.631Z,2.47
2022-11-18T22:42:38.344Z,2.37
2022-11-18T22:45:06.668Z,2.38
2022-11-18T22:47:34.260Z,2.28
2022-11-18T22:50:01.933Z,2.36
2022-11-18T22:52:29.718Z,2.33
2022-11-18T22:54:57.409Z,2.37
2022-11-18T22:57:25.236Z,2.36
2022-11-18T22:59:53.884Z,2.38
2022-11-18T23:02:21.459Z,2.43
2022-11-18T23:04:49.480Z,2.41
2022-11-18T23:07:17.308Z,2.50
2022-11-18T23:09:44.923Z,2.51
2022-11-18T23:12:32.644Z,2.52
2022-11-18T23:15:00.248Z,2.44
2022-11-18T23:17:27.917Z,2.51
2022-11-18T23:19:56.741Z,2.55
2022-11-18T23:22:24.459Z,2.56
2022-11-18T23:24:52.060Z,2.54
2022-11-18T23:27:19.700Z,2.60
2022-11-18T23:29:47.426Z,2.54
2022-11-18T23:32:15.341Z,2.49
2022-11-18T23:34:43.174Z,2.58
2022-11-18T23:37:11.015Z,2.54
2022-11-18T23:39:38.755Z,2.55
2022-11-18T23:42:06.527Z,2.54
2022-11-18T23:44:46.129Z,2.54
2022-11-18T23:47:14.019Z,2.58
2022-11-18T23:49:42.023Z,2.62
2022-11-18T23:52:10.861Z,2.65
2022-11-18T23:54:40.643Z,2.68
2022-11-18T23:57:08.338Z,2.64
2022-11-18T23:59:35.876Z,2.63
